N11816 KORL-KSRQ
Flight info
| Callsign | N11816 |
|---|---|
| Flight time | 0h 56m |
| Altitude | 8000 |
| Route | TOLLZ LAL |
| Aircraft | C310/L-SDFGR/S |
Departure
| Time | 2026-05-05 00:52 |
|---|---|
| Airport | Orlando Executive Airport (KORL) |
Arrival
| Time | 2026-05-05 01:49 |
|---|---|
| Airport | Sarasota Bradenton International Airport (KSRQ) |
| Time | Latitude | Longitude | Altitude | Speed | Heading |
|---|---|---|---|---|---|
| 2026-05-05 00:11 | 28.55037 | -81.33279 | 108 ft | 0 kts | 309° |
| 2026-05-05 00:38 | 28.55029 | -81.33302 | 108 ft | 5 kts | 214° |
| 2026-05-05 00:38 | 28.54983 | -81.33328 | 107 ft | 8 kts | 206° |
| 2026-05-05 00:38 | 28.54927 | -81.33371 | 107 ft | 11 kts | 220° |
| 2026-05-05 00:38 | 28.54868 | -81.33425 | 106 ft | 10 kts | 223° |
| 2026-05-05 00:39 | 28.54816 | -81.33479 | 106 ft | 9 kts | 220° |
| 2026-05-05 00:39 | 28.54754 | -81.33540 | 105 ft | 12 kts | 219° |
| 2026-05-05 00:39 | 28.54697 | -81.33538 | 105 ft | 8 kts | 98° |
| 2026-05-05 00:39 | 28.54696 | -81.33499 | 105 ft | 4 kts | 89° |
| 2026-05-05 00:40 | 28.54698 | -81.33461 | 106 ft | 4 kts | 84° |
| 2026-05-05 00:40 | 28.54703 | -81.33408 | 106 ft | 8 kts | 82° |
| 2026-05-05 00:40 | 28.54711 | -81.33328 | 107 ft | 10 kts | 85° |
| 2026-05-05 00:40 | 28.54687 | -81.33281 | 107 ft | 5 kts | 161° |
| 2026-05-05 00:41 | 28.54666 | -81.33272 | 107 ft | 3 kts | 161° |
| 2026-05-05 00:41 | 28.54650 | -81.33267 | 107 ft | 0 kts | 175° |
| 2026-05-05 00:41 | 28.54656 | -81.33276 | 107 ft | 4 kts | 356° |
| 2026-05-05 00:42 | 28.54666 | -81.33312 | 107 ft | 10 kts | 243° |
| 2026-05-05 00:42 | 28.54624 | -81.33417 | 106 ft | 18 kts | 247° |
| 2026-05-05 00:42 | 28.54566 | -81.33570 | 105 ft | 23 kts | 247° |
| 2026-05-05 00:42 | 28.54496 | -81.33757 | 104 ft | 27 kts | 243° |
| 2026-05-05 00:43 | 28.54444 | -81.33890 | 103 ft | 6 kts | 245° |
| 2026-05-05 00:43 | 28.54436 | -81.33907 | 103 ft | 2 kts | 236° |
| 2026-05-05 00:43 | 28.54403 | -81.33924 | 103 ft | 5 kts | 168° |
| 2026-05-05 00:43 | 28.54402 | -81.33924 | 103 ft | 0 kts | 165° |
| 2026-05-05 00:48 | 28.54377 | -81.33914 | 103 ft | 0 kts | 156° |
| 2026-05-05 00:51 | 28.54376 | -81.33913 | 103 ft | 1 kts | 156° |
| 2026-05-05 00:51 | 28.54315 | -81.33861 | 103 ft | 15 kts | 93° |
| 2026-05-05 00:51 | 28.54400 | -81.33613 | 104 ft | 63 kts | 65° |
| 2026-05-05 00:52 | 28.54628 | -81.33041 | 168 ft | 85 kts | 71° |
| 2026-05-05 00:52 | 28.54853 | -81.32392 | 296 ft | 93 kts | 68° |
| 2026-05-05 00:52 | 28.55163 | -81.31670 | 466 ft | 110 kts | 67° |
| 2026-05-05 00:52 | 28.55625 | -81.31016 | 875 ft | 105 kts | 42° |
| 2026-05-05 00:53 | 28.56056 | -81.30413 | 1193 ft | 100 kts | 66° |
| 2026-05-05 00:53 | 28.56429 | -81.29681 | 1275 ft | 119 kts | 63° |
| 2026-05-05 00:53 | 28.56821 | -81.28779 | 1325 ft | 133 kts | 70° |
| 2026-05-05 00:53 | 28.57220 | -81.27776 | 1359 ft | 142 kts | 69° |
| 2026-05-05 00:54 | 28.57534 | -81.26724 | 1536 ft | 138 kts | 76° |
| 2026-05-05 00:54 | 28.57871 | -81.25706 | 1700 ft | 138 kts | 70° |
| 2026-05-05 00:54 | 28.58056 | -81.24595 | 1535 ft | 156 kts | 85° |
| 2026-05-05 00:54 | 28.58185 | -81.23393 | 1647 ft | 152 kts | 82° |
| 2026-05-05 00:55 | 28.58367 | -81.22266 | 1878 ft | 142 kts | 80° |
| 2026-05-05 00:55 | 28.58549 | -81.21183 | 2111 ft | 136 kts | 81° |
| 2026-05-05 00:55 | 28.58719 | -81.20150 | 2346 ft | 131 kts | 81° |
| 2026-05-05 00:55 | 28.58884 | -81.19153 | 2579 ft | 128 kts | 81° |
| 2026-05-05 00:56 | 28.59056 | -81.18172 | 2824 ft | 125 kts | 73° |
| 2026-05-05 00:56 | 28.59684 | -81.17481 | 2977 ft | 139 kts | 21° |
| 2026-05-05 00:56 | 28.60703 | -81.17632 | 2996 ft | 162 kts | 333° |
| 2026-05-05 00:56 | 28.61408 | -81.18655 | 2993 ft | 173 kts | 287° |
| 2026-05-05 00:57 | 28.61449 | -81.20022 | 2990 ft | 174 kts | 262° |
| 2026-05-05 00:57 | 28.61282 | -81.21381 | 2986 ft | 174 kts | 261° |
| 2026-05-05 00:57 | 28.61134 | -81.22752 | 2987 ft | 175 kts | 263° |
| 2026-05-05 00:57 | 28.61016 | -81.24122 | 3053 ft | 170 kts | 263° |
| 2026-05-05 00:58 | 28.60906 | -81.25423 | 3284 ft | 158 kts | 263° |
| 2026-05-05 00:58 | 28.60804 | -81.26647 | 3522 ft | 155 kts | 263° |
| 2026-05-05 00:58 | 28.60704 | -81.27857 | 3762 ft | 152 kts | 263° |
| 2026-05-05 00:58 | 28.60606 | -81.29046 | 3999 ft | 150 kts | 263° |
| 2026-05-05 00:59 | 28.60513 | -81.30204 | 4238 ft | 147 kts | 263° |
| 2026-05-05 00:59 | 28.60416 | -81.31348 | 4475 ft | 145 kts | 263° |
| 2026-05-05 00:59 | 28.60325 | -81.32478 | 4716 ft | 142 kts | 263° |
| 2026-05-05 00:59 | 28.60239 | -81.33582 | 4951 ft | 141 kts | 263° |
| 2026-05-05 01:00 | 28.60150 | -81.34745 | 4993 ft | 153 kts | 264° |
| 2026-05-05 01:00 | 28.60048 | -81.36005 | 4992 ft | 164 kts | 263° |
| 2026-05-05 01:00 | 28.59938 | -81.37316 | 4989 ft | 170 kts | 263° |
| 2026-05-05 01:00 | 28.59826 | -81.38672 | 4986 ft | 175 kts | 263° |
| 2026-05-05 01:01 | 28.59709 | -81.40062 | 4983 ft | 177 kts | 263° |
| 2026-05-05 01:01 | 28.59593 | -81.41462 | 4982 ft | 178 kts | 263° |
| 2026-05-05 01:01 | 28.59474 | -81.42869 | 4984 ft | 179 kts | 263° |
| 2026-05-05 01:01 | 28.59357 | -81.44290 | 5005 ft | 178 kts | 264° |
| 2026-05-05 01:02 | 28.59154 | -81.45632 | 5120 ft | 171 kts | 245° |
| 2026-05-05 01:02 | 28.58463 | -81.46715 | 5243 ft | 165 kts | 225° |
| 2026-05-05 01:02 | 28.57634 | -81.47600 | 5362 ft | 162 kts | 220° |
| 2026-05-05 01:02 | 28.56777 | -81.48425 | 5480 ft | 160 kts | 219° |
| 2026-05-05 01:03 | 28.55923 | -81.49222 | 5601 ft | 158 kts | 219° |
| 2026-05-05 01:03 | 28.55076 | -81.50002 | 5751 ft | 155 kts | 219° |
| 2026-05-05 01:03 | 28.54243 | -81.50765 | 5929 ft | 151 kts | 219° |
| 2026-05-05 01:03 | 28.53441 | -81.51500 | 6105 ft | 148 kts | 220° |
| 2026-05-05 01:04 | 28.52643 | -81.52232 | 6284 ft | 145 kts | 220° |
| 2026-05-05 01:04 | 28.51085 | -81.53657 | 6643 ft | 142 kts | 220° |
| 2026-05-05 01:04 | 28.50320 | -81.54357 | 6821 ft | 140 kts | 220° |
| 2026-05-05 01:05 | 28.49563 | -81.55051 | 7000 ft | 139 kts | 221° |
| 2026-05-05 01:05 | 28.48807 | -81.55742 | 7178 ft | 138 kts | 221° |
| 2026-05-05 01:05 | 28.48059 | -81.56426 | 7360 ft | 137 kts | 221° |
| 2026-05-05 01:05 | 28.47318 | -81.57104 | 7539 ft | 136 kts | 221° |
| 2026-05-05 01:06 | 28.46583 | -81.57776 | 7718 ft | 135 kts | 221° |
| 2026-05-05 01:06 | 28.45854 | -81.58442 | 7914 ft | 133 kts | 222° |
| 2026-05-05 01:06 | 28.45111 | -81.59123 | 7979 ft | 141 kts | 223° |
| 2026-05-05 01:06 | 28.44318 | -81.59850 | 7984 ft | 150 kts | 222° |
| 2026-05-05 01:07 | 28.43491 | -81.60608 | 7981 ft | 155 kts | 222° |
| 2026-05-05 01:07 | 28.42637 | -81.61389 | 7978 ft | 160 kts | 221° |
| 2026-05-05 01:07 | 28.41760 | -81.62191 | 7977 ft | 163 kts | 221° |
| 2026-05-05 01:07 | 28.40871 | -81.63004 | 7979 ft | 165 kts | 221° |
| 2026-05-05 01:08 | 28.39975 | -81.63822 | 7979 ft | 166 kts | 221° |
| 2026-05-05 01:08 | 28.39071 | -81.64648 | 7977 ft | 167 kts | 221° |
| 2026-05-05 01:08 | 28.38152 | -81.65487 | 7978 ft | 167 kts | 221° |
| 2026-05-05 01:08 | 28.37242 | -81.66312 | 7985 ft | 167 kts | 221° |
| 2026-05-05 01:09 | 28.36337 | -81.67142 | 7990 ft | 168 kts | 221° |
| 2026-05-05 01:09 | 28.35417 | -81.67982 | 7981 ft | 169 kts | 221° |
| 2026-05-05 01:09 | 28.34500 | -81.68819 | 7967 ft | 169 kts | 221° |
| 2026-05-05 01:09 | 28.33583 | -81.69656 | 7973 ft | 169 kts | 221° |
| 2026-05-05 01:10 | 28.32666 | -81.70492 | 7973 ft | 169 kts | 221° |
| 2026-05-05 01:10 | 28.31738 | -81.71337 | 7969 ft | 169 kts | 221° |
| 2026-05-05 01:10 | 28.30824 | -81.72170 | 7966 ft | 169 kts | 221° |
| 2026-05-05 01:10 | 28.29911 | -81.73003 | 7970 ft | 169 kts | 221° |
| 2026-05-05 01:11 | 28.28987 | -81.73845 | 7961 ft | 169 kts | 221° |
| 2026-05-05 01:11 | 28.28070 | -81.74679 | 7960 ft | 169 kts | 221° |
| 2026-05-05 01:11 | 28.27142 | -81.75524 | 7964 ft | 169 kts | 222° |
| 2026-05-05 01:11 | 28.26224 | -81.76360 | 7958 ft | 169 kts | 221° |
| 2026-05-05 01:12 | 28.25307 | -81.77196 | 7948 ft | 168 kts | 222° |
| 2026-05-05 01:12 | 28.24398 | -81.78024 | 7945 ft | 167 kts | 222° |
| 2026-05-05 01:12 | 28.23492 | -81.78851 | 7944 ft | 167 kts | 221° |
| 2026-05-05 01:12 | 28.22588 | -81.79675 | 7944 ft | 166 kts | 221° |
| 2026-05-05 01:13 | 28.21686 | -81.80496 | 7965 ft | 166 kts | 222° |
| 2026-05-05 01:13 | 28.20779 | -81.81321 | 7965 ft | 167 kts | 222° |
| 2026-05-05 01:13 | 28.19869 | -81.82148 | 7957 ft | 167 kts | 221° |
| 2026-05-05 01:13 | 28.18959 | -81.82976 | 7978 ft | 168 kts | 221° |
| 2026-05-05 01:14 | 28.18045 | -81.83806 | 7963 ft | 168 kts | 221° |
| 2026-05-05 01:14 | 28.17133 | -81.84634 | 7965 ft | 168 kts | 222° |
| 2026-05-05 01:14 | 28.16218 | -81.85466 | 7962 ft | 168 kts | 222° |
| 2026-05-05 01:14 | 28.15301 | -81.86298 | 7962 ft | 168 kts | 222° |
| 2026-05-05 01:15 | 28.14377 | -81.87137 | 7962 ft | 168 kts | 221° |
| 2026-05-05 01:15 | 28.13462 | -81.87967 | 7972 ft | 169 kts | 221° |
| 2026-05-05 01:15 | 28.12548 | -81.88796 | 7963 ft | 168 kts | 222° |
| 2026-05-05 01:15 | 28.11630 | -81.89629 | 7963 ft | 168 kts | 222° |
| 2026-05-05 01:16 | 28.10716 | -81.90458 | 7962 ft | 168 kts | 222° |
| 2026-05-05 01:16 | 28.09803 | -81.91286 | 7962 ft | 168 kts | 222° |
| 2026-05-05 01:16 | 28.08886 | -81.92117 | 7962 ft | 168 kts | 222° |
| 2026-05-05 01:16 | 28.07967 | -81.92950 | 7960 ft | 168 kts | 221° |
| 2026-05-05 01:17 | 28.07054 | -81.93778 | 7960 ft | 169 kts | 222° |
| 2026-05-05 01:17 | 28.06130 | -81.94614 | 7958 ft | 169 kts | 221° |
| 2026-05-05 01:17 | 28.05211 | -81.95447 | 7959 ft | 169 kts | 222° |
| 2026-05-05 01:17 | 28.04291 | -81.96280 | 7959 ft | 169 kts | 221° |
| 2026-05-05 01:18 | 28.03374 | -81.97109 | 7959 ft | 169 kts | 222° |
| 2026-05-05 01:18 | 28.02459 | -81.97937 | 7956 ft | 169 kts | 222° |
| 2026-05-05 01:18 | 28.01544 | -81.98765 | 7955 ft | 169 kts | 222° |
| 2026-05-05 01:18 | 28.00614 | -81.99607 | 7954 ft | 169 kts | 222° |
| 2026-05-05 01:19 | 27.99698 | -82.00436 | 7954 ft | 169 kts | 222° |
| 2026-05-05 01:19 | 27.98783 | -82.01263 | 7953 ft | 169 kts | 223° |
| 2026-05-05 01:19 | 27.97868 | -82.02114 | 7953 ft | 169 kts | 222° |
| 2026-05-05 01:19 | 27.96953 | -82.02952 | 7954 ft | 169 kts | 223° |
| 2026-05-05 01:20 | 27.96042 | -82.03789 | 7955 ft | 169 kts | 223° |
| 2026-05-05 01:20 | 27.95124 | -82.04633 | 7954 ft | 169 kts | 223° |
| 2026-05-05 01:20 | 27.94211 | -82.05473 | 7952 ft | 169 kts | 223° |
| 2026-05-05 01:20 | 27.93303 | -82.06307 | 7954 ft | 168 kts | 223° |
| 2026-05-05 01:21 | 27.92394 | -82.07144 | 7953 ft | 168 kts | 223° |
| 2026-05-05 01:21 | 27.91486 | -82.07980 | 7951 ft | 169 kts | 222° |
| 2026-05-05 01:21 | 27.90565 | -82.08826 | 7953 ft | 169 kts | 223° |
| 2026-05-05 01:21 | 27.89665 | -82.09654 | 7952 ft | 169 kts | 222° |
| 2026-05-05 01:22 | 27.88733 | -82.10511 | 7953 ft | 169 kts | 223° |
| 2026-05-05 01:22 | 27.87825 | -82.11346 | 7952 ft | 169 kts | 222° |
| 2026-05-05 01:22 | 27.86914 | -82.12183 | 7952 ft | 168 kts | 223° |
| 2026-05-05 01:22 | 27.85923 | -82.12907 | 7954 ft | 171 kts | 206° |
| 2026-05-05 01:23 | 27.84791 | -82.13337 | 7954 ft | 172 kts | 201° |
| 2026-05-05 01:23 | 27.83654 | -82.13743 | 7959 ft | 172 kts | 202° |
| 2026-05-05 01:23 | 27.82519 | -82.14197 | 7951 ft | 172 kts | 204° |
| 2026-05-05 01:23 | 27.81394 | -82.14669 | 7943 ft | 172 kts | 204° |
| 2026-05-05 01:24 | 27.80273 | -82.15138 | 7947 ft | 171 kts | 204° |
| 2026-05-05 01:24 | 27.79153 | -82.15601 | 7967 ft | 171 kts | 203° |
| 2026-05-05 01:24 | 27.78013 | -82.16065 | 7962 ft | 172 kts | 204° |
| 2026-05-05 01:24 | 27.76895 | -82.16517 | 7975 ft | 173 kts | 203° |
| 2026-05-05 01:25 | 27.75760 | -82.16987 | 7962 ft | 174 kts | 204° |
| 2026-05-05 01:25 | 27.74624 | -82.17461 | 7953 ft | 173 kts | 204° |
| 2026-05-05 01:25 | 27.73488 | -82.17931 | 7947 ft | 173 kts | 204° |
| 2026-05-05 01:25 | 27.72348 | -82.18407 | 7949 ft | 172 kts | 204° |
| 2026-05-05 01:26 | 27.71232 | -82.18878 | 7945 ft | 172 kts | 204° |
| 2026-05-05 01:26 | 27.70103 | -82.19350 | 7946 ft | 171 kts | 204° |
| 2026-05-05 01:26 | 27.68988 | -82.19816 | 7949 ft | 171 kts | 204° |
| 2026-05-05 01:26 | 27.67857 | -82.20286 | 7946 ft | 171 kts | 204° |
| 2026-05-05 01:27 | 27.66744 | -82.20747 | 7947 ft | 171 kts | 204° |
| 2026-05-05 01:27 | 27.65624 | -82.21219 | 7948 ft | 171 kts | 204° |
| 2026-05-05 01:27 | 27.64512 | -82.21684 | 7947 ft | 170 kts | 203° |
| 2026-05-05 01:27 | 27.63384 | -82.22156 | 7942 ft | 170 kts | 203° |
| 2026-05-05 01:28 | 27.62274 | -82.22629 | 7946 ft | 170 kts | 204° |
| 2026-05-05 01:28 | 27.61166 | -82.23106 | 7946 ft | 170 kts | 204° |
| 2026-05-05 01:28 | 27.60057 | -82.23573 | 7945 ft | 170 kts | 204° |
| 2026-05-05 01:28 | 27.58950 | -82.24043 | 7944 ft | 170 kts | 204° |
| 2026-05-05 01:29 | 27.57835 | -82.24524 | 7944 ft | 169 kts | 204° |
| 2026-05-05 01:29 | 27.56732 | -82.24995 | 7945 ft | 169 kts | 204° |
| 2026-05-05 01:29 | 27.55635 | -82.25464 | 7945 ft | 169 kts | 204° |
| 2026-05-05 01:29 | 27.54530 | -82.25934 | 7946 ft | 169 kts | 204° |
| 2026-05-05 01:30 | 27.53416 | -82.26414 | 7947 ft | 170 kts | 204° |
| 2026-05-05 01:30 | 27.52308 | -82.26885 | 7946 ft | 170 kts | 204° |
| 2026-05-05 01:30 | 27.51219 | -82.27399 | 7944 ft | 168 kts | 213° |
| 2026-05-05 01:30 | 27.50287 | -82.28198 | 7946 ft | 167 kts | 222° |
| 2026-05-05 01:31 | 27.49403 | -82.29047 | 7945 ft | 168 kts | 221° |
| 2026-05-05 01:31 | 27.48479 | -82.29861 | 7946 ft | 168 kts | 219° |
| 2026-05-05 01:31 | 27.47537 | -82.30648 | 7946 ft | 168 kts | 218° |
| 2026-05-05 01:31 | 27.46603 | -82.31438 | 7945 ft | 168 kts | 219° |
| 2026-05-05 01:32 | 27.45668 | -82.32240 | 7943 ft | 168 kts | 219° |
| 2026-05-05 01:32 | 27.44739 | -82.33034 | 7939 ft | 168 kts | 219° |
| 2026-05-05 01:32 | 27.43811 | -82.33832 | 7933 ft | 167 kts | 219° |
| 2026-05-05 01:32 | 27.42884 | -82.34626 | 7945 ft | 167 kts | 219° |
| 2026-05-05 01:33 | 27.41959 | -82.35429 | 7945 ft | 168 kts | 219° |
| 2026-05-05 01:33 | 27.41034 | -82.36239 | 7944 ft | 168 kts | 219° |
| 2026-05-05 01:33 | 27.40110 | -82.37050 | 7943 ft | 168 kts | 219° |
| 2026-05-05 01:33 | 27.39183 | -82.37866 | 7944 ft | 168 kts | 219° |
| 2026-05-05 01:34 | 27.38259 | -82.38684 | 7937 ft | 168 kts | 219° |
| 2026-05-05 01:34 | 27.37341 | -82.39503 | 7919 ft | 168 kts | 219° |
| 2026-05-05 01:34 | 27.36436 | -82.40295 | 7871 ft | 162 kts | 219° |
| 2026-05-05 01:34 | 27.35541 | -82.41075 | 7685 ft | 163 kts | 219° |
| 2026-05-05 01:35 | 27.34646 | -82.41869 | 7488 ft | 163 kts | 219° |
| 2026-05-05 01:35 | 27.33758 | -82.42675 | 7307 ft | 164 kts | 219° |
| 2026-05-05 01:35 | 27.32873 | -82.43489 | 7132 ft | 164 kts | 219° |
| 2026-05-05 01:35 | 27.31991 | -82.44304 | 6957 ft | 164 kts | 219° |
| 2026-05-05 01:36 | 27.31105 | -82.45126 | 6781 ft | 165 kts | 219° |
| 2026-05-05 01:36 | 27.30226 | -82.45963 | 6572 ft | 165 kts | 219° |
| 2026-05-05 01:36 | 27.29349 | -82.46806 | 6368 ft | 166 kts | 219° |
| 2026-05-05 01:36 | 27.28479 | -82.47658 | 6190 ft | 167 kts | 219° |
| 2026-05-05 01:37 | 27.27604 | -82.48514 | 6009 ft | 167 kts | 219° |
| 2026-05-05 01:37 | 27.26713 | -82.49378 | 5843 ft | 168 kts | 219° |
| 2026-05-05 01:37 | 27.25834 | -82.50238 | 5690 ft | 168 kts | 219° |
| 2026-05-05 01:37 | 27.24957 | -82.51097 | 5499 ft | 166 kts | 219° |
| 2026-05-05 01:38 | 27.24090 | -82.51948 | 5350 ft | 164 kts | 219° |
| 2026-05-05 01:38 | 27.23222 | -82.52805 | 5155 ft | 164 kts | 219° |
| 2026-05-05 01:38 | 27.22381 | -82.53648 | 4976 ft | 164 kts | 219° |
| 2026-05-05 01:38 | 27.21532 | -82.54510 | 4797 ft | 163 kts | 219° |
| 2026-05-05 01:39 | 27.20677 | -82.55369 | 4626 ft | 163 kts | 219° |
| 2026-05-05 01:39 | 27.19834 | -82.56208 | 4456 ft | 161 kts | 219° |
| 2026-05-05 01:39 | 27.18998 | -82.57048 | 4214 ft | 160 kts | 219° |
| 2026-05-05 01:39 | 27.18169 | -82.57887 | 3973 ft | 160 kts | 219° |
| 2026-05-05 01:40 | 27.17351 | -82.58722 | 3728 ft | 160 kts | 219° |
| 2026-05-05 01:40 | 27.16572 | -82.59609 | 3481 ft | 163 kts | 237° |
| 2026-05-05 01:40 | 27.16420 | -82.60841 | 3244 ft | 165 kts | 287° |
| 2026-05-05 01:40 | 27.16963 | -82.61972 | 3000 ft | 164 kts | 307° |
| 2026-05-05 01:41 | 27.17692 | -82.62891 | 2926 ft | 152 kts | 323° |
| 2026-05-05 01:41 | 27.18518 | -82.63651 | 2715 ft | 153 kts | 325° |
| 2026-05-05 01:41 | 27.19349 | -82.64386 | 2516 ft | 153 kts | 325° |
| 2026-05-05 01:41 | 27.20191 | -82.65123 | 2316 ft | 152 kts | 326° |
| 2026-05-05 01:42 | 27.21024 | -82.65850 | 2111 ft | 149 kts | 326° |
| 2026-05-05 01:42 | 27.21838 | -82.66560 | 1900 ft | 146 kts | 326° |
| 2026-05-05 01:42 | 27.22631 | -82.67251 | 1689 ft | 144 kts | 325° |
| 2026-05-05 01:42 | 27.23428 | -82.67942 | 1504 ft | 139 kts | 329° |
| 2026-05-05 01:43 | 27.24261 | -82.68175 | 1517 ft | 114 kts | 15° |
| 2026-05-05 01:43 | 27.24968 | -82.67853 | 1542 ft | 111 kts | 33° |
| 2026-05-05 01:43 | 27.25641 | -82.67377 | 1552 ft | 117 kts | 37° |
| 2026-05-05 01:43 | 27.26324 | -82.66833 | 1551 ft | 123 kts | 38° |
| 2026-05-05 01:44 | 27.27029 | -82.66240 | 1544 ft | 128 kts | 39° |
| 2026-05-05 01:44 | 27.27746 | -82.65622 | 1544 ft | 130 kts | 40° |
| 2026-05-05 01:44 | 27.28460 | -82.64999 | 1541 ft | 131 kts | 40° |
| 2026-05-05 01:44 | 27.29228 | -82.64327 | 1366 ft | 144 kts | 39° |
| 2026-05-05 01:45 | 27.30031 | -82.63624 | 1258 ft | 147 kts | 39° |
| 2026-05-05 01:45 | 27.30834 | -82.62920 | 1255 ft | 142 kts | 39° |
| 2026-05-05 01:45 | 27.31604 | -82.62248 | 1249 ft | 137 kts | 40° |
| 2026-05-05 01:45 | 27.32319 | -82.61621 | 1265 ft | 126 kts | 40° |
| 2026-05-05 01:46 | 27.32994 | -82.61028 | 1255 ft | 120 kts | 40° |
| 2026-05-05 01:46 | 27.33650 | -82.60452 | 1244 ft | 116 kts | 41° |
| 2026-05-05 01:46 | 27.34280 | -82.59898 | 1238 ft | 113 kts | 41° |
| 2026-05-05 01:46 | 27.34901 | -82.59354 | 1234 ft | 112 kts | 41° |
| 2026-05-05 01:47 | 27.35521 | -82.58807 | 1163 ft | 117 kts | 41° |
| 2026-05-05 01:47 | 27.36176 | -82.58232 | 1034 ft | 123 kts | 41° |
| 2026-05-05 01:47 | 27.36876 | -82.57602 | 770 ft | 130 kts | 40° |
| 2026-05-05 01:47 | 27.37571 | -82.57043 | 481 ft | 117 kts | 38° |
| 2026-05-05 01:48 | 27.38183 | -82.56507 | 310 ft | 106 kts | 40° |
| 2026-05-05 01:48 | 27.38750 | -82.55991 | 126 ft | 102 kts | 41° |
| 2026-05-05 01:48 | 27.39280 | -82.55517 | 31 ft | 81 kts | 37° |
| 2026-05-05 01:48 | 27.39638 | -82.55205 | 31 ft | 53 kts | 38° |
| 2026-05-05 01:49 | 27.39755 | -82.55185 | 31 ft | 13 kts | 300° |
| 2026-05-05 01:49 | 27.39829 | -82.55154 | 31 ft | 13 kts | 39° |
| 2026-05-05 01:49 | 27.39907 | -82.55084 | 31 ft | 15 kts | 38° |
| 2026-05-05 01:49 | 27.39992 | -82.55009 | 31 ft | 14 kts | 37° |
| 2026-05-05 01:50 | 27.40059 | -82.54947 | 31 ft | 11 kts | 32° |
| 2026-05-05 01:50 | 27.40133 | -82.54932 | 31 ft | 10 kts | 7° |
| 2026-05-05 01:50 | 27.40199 | -82.54935 | 31 ft | 8 kts | 360° |
| 2026-05-05 01:50 | 27.40249 | -82.54954 | 31 ft | 3 kts | 336° |
| 2026-05-05 01:51 | 27.40247 | -82.54961 | 31 ft | 0 kts | 185° |